Time;durP1;ratioP1;P1;durP2;ratioP2;P2;SDS_P1;SDS_P2;PMS_P1;PMS_P2;Temp;Humidity;BMP_temperature;BMP_pressure;BME280_temperature;BME280_humidity;BME280_pressure;Samples;Min_cycle;Max_cycle;Signal;HPM_P1;HPM_P2
2023/01/28 00:02:04;;;;;;;4.18;3.88;;;;;;;0.96;76.09;101710.09;10176907;29;20158;-75
2023/01/28 00:07:10;;;;;;;7.82;3.92;;;;;;;0.95;75.88;101715.41;11527369;23;20108;-75
2023/01/28 00:12:14;;;;;;;4.45;4.05;;;;;;;1.04;76.70;101717.84;10189801;29;20048;-75
2023/01/28 00:17:17;;;;;;;7.22;5.97;;;;;;;0.99;75.59;101720.59;10184887;29;20131;-75
2023/01/28 00:22:20;;;;;;;5.00;4.50;;;;;;;1.06;76.79;101724.00;10201207;29;20051;-75
2023/01/28 00:27:24;;;;;;;4.45;3.97;;;;;;;1.03;76.01;101718.75;10210817;29;20119;-75
2023/01/28 00:32:27;;;;;;;4.35;3.92;;;;;;;0.98;76.10;101713.56;10211861;23;20126;-78
2023/01/28 00:37:30;;;;;;;5.53;3.55;;;;;;;0.97;75.98;101718.91;10214069;29;20173;-76
2023/01/28 00:42:36;;;;;;;3.40;3.10;;;;;;;0.93;73.83;101731.28;10212458;29;20044;-78
2023/01/28 00:47:38;;;;;;;3.05;2.78;;;;;;;0.89;72.33;101726.97;10198627;29;20036;-77
2023/01/28 00:52:41;;;;;;;4.45;3.10;;;;;;;0.80;70.54;101729.81;10197939;29;20143;-78
2023/01/28 00:57:45;;;;;;;4.10;3.70;;;;;;;0.86;72.75;101723.53;10197548;29;20112;-77
2023/01/28 01:02:48;;;;;;;4.20;3.72;;;;;;;0.87;73.18;101723.47;10206785;29;20537;-76
2023/01/28 01:07:51;;;;;;;5.35;4.18;;;;;;;0.86;74.23;101718.22;10211048;29;20048;-76
2023/01/28 01:12:56;;;;;;;3.83;3.53;;;;;;;0.90;74.91;101712.84;10228331;29;20044;-75
2023/01/28 01:18:00;;;;;;;3.83;3.30;;;;;;;0.95;75.92;101710.97;10222458;29;20040;-77
2023/01/28 01:23:02;;;;;;;4.60;3.38;;;;;;;0.92;75.10;101713.69;10208831;29;20040;-76
2023/01/28 01:28:06;;;;;;;4.80;3.35;;;;;;;0.82;71.82;101704.16;10206072;29;20122;-78
2023/01/28 01:33:09;;;;;;;3.70;3.30;;;;;;;0.88;74.90;101719.94;10198446;29;20048;-78
2023/01/28 01:38:12;;;;;;;4.25;3.53;;;;;;;0.87;73.96;101719.97;10189223;29;20078;-78
2023/01/28 01:43:18;;;;;;;3.30;3.00;;;;;;;0.92;75.84;101713.69;10194843;29;20135;-76
2023/01/28 01:48:26;;;;;;;4.43;3.20;;;;;;;0.94;76.67;101711.88;10199986;29;20404;-78
2023/01/28 01:53:31;;;;;;;3.35;3.03;;;;;;;0.92;76.13;101721.63;10204994;29;20062;-78
2023/01/28 01:58:39;;;;;;;4.18;3.35;;;;;;;0.93;75.92;101722.50;10185023;29;20052;-78
2023/01/28 02:03:51;;;;;;;5.47;3.55;;;;;;;0.91;75.55;101730.47;10184503;29;20043;-78
2023/01/28 02:08:55;;;;;;;4.40;3.78;;;;;;;0.67;71.98;101721.22;10214928;29;20040;-78
2023/01/28 02:14:04;;;;;;;4.50;4.00;;;;;;;0.78;73.08;101728.97;10204427;29;20048;-78
2023/01/28 02:19:09;;;;;;;5.95;4.25;;;;;;;0.69;71.65;101740.59;10210310;29;20051;-79
2023/01/28 02:24:35;;;;;;;7.13;3.80;;;;;;;0.78;73.87;101731.59;10191424;29;20048;-76
2023/01/28 02:29:46;;;;;;;4.75;4.18;;;;;;;0.79;73.76;101742.13;10197715;29;20047;-78
2023/01/28 02:34:53;;;;;;;6.97;4.95;;;;;;;0.73;73.31;101744.91;10192054;29;20036;-79
2023/01/28 02:40:01;;;;;;;5.43;4.72;;;;;;;0.77;73.55;101743.09;10188758;29;20454;-77
2023/01/28 02:45:16;;;;;;;4.72;4.32;;;;;;;0.74;73.03;101732.53;10206100;29;20418;-76
2023/01/28 02:50:20;;;;;;;5.30;4.70;;;;;;;0.73;74.15;101728.16;10181206;29;20128;-78
2023/01/28 02:55:34;;;;;;;7.63;4.25;;;;;;;0.79;75.72;101728.91;10210693;29;20092;-78
2023/01/28 03:00:48;;;;;;;6.18;4.90;;;;;;;0.82;76.38;101722.69;10179233;29;20028;-75
2023/01/28 03:06:05;;;;;;;6.03;4.60;;;;;;;0.83;76.29;101737.69;10223561;29;20076;-77
2023/01/28 03:38:17;;;;;;;6.30;4.20;;;;;;;0.81;77.08;101707.72;10202340;29;20440;-79
2023/01/28 03:43:20;;;;;;;4.55;4.15;;;;;;;0.78;75.58;101719.25;10202929;29;20139;-78
2023/01/28 03:48:27;;;;;;;5.25;4.25;;;;;;;0.80;77.18;101724.53;10209574;29;20150;-78
2023/01/28 03:53:31;;;;;;;9.32;4.72;;;;;;;0.79;77.46;101720.97;10180792;29;20087;-77
2023/01/28 03:58:51;;;;;;;5.28;4.78;;;;;;;0.79;77.49;101717.47;10192497;29;20071;-78
2023/01/28 04:03:56;;;;;;;4.93;4.22;;;;;;;0.77;77.21;101721.94;10194122;29;20040;-78
2023/01/28 04:09:04;;;;;;;7.30;4.40;;;;;;;0.77;77.40;101729.88;10215838;29;20051;-78
2023/01/28 04:14:25;;;;;;;;;;;;;;;0.71;74.58;101727.31;10194111;29;20040;-78
2023/01/28 04:19:45;;;;;;;6.05;4.90;;;;;;;0.72;75.42;101737.00;10207315;29;19923;-77
2023/01/28 04:24:50;;;;;;;6.80;4.85;;;;;;;0.75;76.18;101736.97;10219234;29;20072;-77
2023/01/28 04:29:54;;;;;;;5.80;5.30;;;;;;;0.75;77.04;101740.47;10235424;29;20071;-75
2023/01/28 04:35:14;;;;;;;6.78;4.60;;;;;;;0.75;77.06;101763.41;10203200;29;20135;-78
2023/01/28 04:40:30;;;;;;;5.53;4.90;;;;;;;0.70;76.57;101760.84;10174582;29;20106;-76
2023/01/28 04:45:39;;;;;;;8.30;5.03;;;;;;;0.72;77.03;101758.19;10202165;29;20039;-78
2023/01/28 04:51:04;;;;;;;5.95;5.35;;;;;;;0.70;77.13;101758.19;10190922;29;20051;-78
2023/01/28 04:56:15;;;;;;;8.07;5.13;;;;;;;0.66;75.22;101752.97;10188087;29;20059;-78
2023/01/28 05:01:18;;;;;;;7.72;5.00;;;;;;;0.67;76.13;101752.09;10201849;29;20048;-76
2023/01/28 05:06:23;;;;;;;5.82;4.75;;;;;;;0.70;77.71;101755.53;10190455;29;20105;-78
2023/01/28 05:11:30;;;;;;;7.07;4.78;;;;;;;0.49;72.60;101746.22;10211477;29;20046;-78
2023/01/28 05:16:37;;;;;;;6.82;4.68;;;;;;;0.36;69.60;101747.34;10206598;29;20043;-77
2023/01/28 05:21:42;;;;;;;5.75;4.55;;;;;;;0.41;72.64;101758.69;10202151;29;20044;-78
2023/01/28 05:27:09;;;;;;;6.18;4.50;;;;;;;0.41;71.39;101758.69;10192049;29;20055;-78
2023/01/28 05:32:12;;;;;;;6.03;4.68;;;;;;;0.43;73.98;101759.53;10243386;29;20078;-78
2023/01/28 05:37:16;;;;;;;6.22;4.63;;;;;;;0.45;74.84;101757.75;10226337;29;20531;-78
2023/01/28 05:42:21;;;;;;;6.97;5.38;;;;;;;0.46;74.74;101759.50;10189647;29;20048;-77
2023/01/28 05:47:28;;;;;;;9.40;5.07;;;;;;;0.46;74.49;101766.56;10210242;29;20515;-77
2023/01/28 05:52:40;;;;;;;6.93;4.90;;;;;;;0.50;76.04;101771.78;10205298;29;20056;-77
2023/01/28 05:57:54;;;;;;;6.05;5.00;;;;;;;0.51;76.16;101762.94;10210452;29;20083;-77
2023/01/28 06:02:59;;;;;;;5.20;4.70;;;;;;;0.50;76.39;101763.84;10210327;29;20074;-77
2023/01/28 06:08:05;;;;;;;5.00;4.55;;;;;;;0.49;75.07;101763.84;10181377;29;20068;-79
2023/01/28 06:13:08;;;;;;;6.50;5.07;;;;;;;0.46;76.59;101754.19;10192041;29;20046;-77
2023/01/28 06:18:30;;;;;;;8.00;4.75;;;;;;;0.47;76.78;101763.03;10190990;29;20056;-77
2023/01/28 06:23:34;;;;;;;9.68;5.47;;;;;;;0.47;76.77;101763.91;10216564;29;20050;-77
2023/01/28 06:28:40;;;;;;;10.00;5.80;;;;;;;0.46;76.20;101764.78;10201796;29;20448;-77
2023/01/28 06:33:43;;;;;;;6.05;5.45;;;;;;;0.38;74.05;101766.69;10219865;23;20043;-76
2023/01/28 06:38:47;;;;;;;6.00;5.43;;;;;;;0.43;74.40;101769.25;10213201;29;20087;-75
2023/01/28 06:43:50;;;;;;;6.90;4.72;;;;;;;0.38;73.62;101756.09;10215672;29;20510;-75
2023/01/28 06:48:53;;;;;;;7.30;5.32;;;;;;;0.34;74.47;101765.00;10208499;29;20063;-76
2023/01/28 06:53:57;;;;;;;6.18;5.13;;;;;;;0.42;74.71;101762.22;10187982;29;20525;-76
2023/01/28 06:59:00;;;;;;;10.13;6.25;;;;;;;0.46;76.28;101766.56;10186404;29;20047;-75
2023/01/28 07:04:04;;;;;;;7.10;5.50;;;;;;;0.37;75.14;101763.16;10205850;29;20523;-75
2023/01/28 07:09:08;;;;;;;11.07;8.10;;;;;;;0.38;75.75;101769.31;10207989;29;20079;-75
2023/01/28 07:14:10;;;;;;;8.65;6.22;;;;;;;0.37;75.64;101780.81;10183575;29;20071;-76
2023/01/28 07:19:13;;;;;;;11.57;6.18;;;;;;;0.62;73.54;101791.84;10187112;29;20055;-76
2023/01/28 07:24:17;;;;;;;9.88;4.97;;;;;;;1.02;71.11;101785.84;10179773;29;20436;-76
2023/01/28 07:29:20;;;;;;;3.60;2.95;;;;;;;1.30;69.20;101772.06;10175807;29;20663;-77
2023/01/28 07:34:23;;;;;;;5.07;3.00;;;;;;;1.49;69.93;101774.28;10184332;29;20048;-77
2023/01/28 07:39:27;;;;;;;4.60;3.88;;;;;;;1.53;70.93;101782.16;10192151;29;20489;-76
2023/01/28 07:44:30;;;;;;;6.70;4.30;;;;;;;1.41;73.39;101780.66;10204247;29;20048;-76
2023/01/28 07:49:33;;;;;;;7.32;5.28;;;;;;;1.25;74.59;101793.31;10207374;29;20423;-76
2023/01/28 07:54:38;;;;;;;11.60;6.13;;;;;;;1.11;74.12;101787.44;10199240;29;20051;-76
2023/01/28 07:59:40;;;;;;;5.78;4.57;;;;;;;1.04;73.96;101787.56;10188509;29;20055;-76
2023/01/28 08:04:43;;;;;;;9.65;5.25;;;;;;;1.05;75.18;101807.81;10178745;29;20071;-75
2023/01/28 08:09:48;;;;;;;6.80;4.32;;;;;;;0.97;73.83;101807.09;10174044;29;20071;-76
2023/01/28 08:14:50;;;;;;;4.80;4.30;;;;;;;0.75;72.16;101809.25;10184645;29;20094;-76
2023/01/28 08:19:53;;;;;;;5.82;4.75;;;;;;;0.92;74.86;101814.22;10187887;29;20660;-76
2023/01/28 08:24:58;;;;;;;6.47;5.18;;;;;;;1.01;75.09;101814.06;10178804;29;20122;-74
2023/01/28 08:30:01;;;;;;;5.95;5.32;;;;;;;0.95;70.41;101835.34;10173513;29;20131;-76
2023/01/28 08:35:06;;;;;;;7.65;5.50;;;;;;;0.78;69.13;101832.13;10181401;29;20044;-75
2023/01/28 08:40:12;;;;;;;5.32;4.45;;;;;;;1.04;71.12;101842.25;10190529;29;20044;-75
2023/01/28 08:45:16;;;;;;;6.85;5.13;;;;;;;1.14;71.49;101856.19;10201125;29;20043;-75
2023/01/28 08:50:20;;;;;;;5.93;5.07;;;;;;;1.02;69.72;101860.81;10175570;29;20048;-76
2023/01/28 08:55:25;;;;;;;8.23;5.93;;;;;;;1.14;71.60;101872.06;10188759;29;20079;-76
2023/01/28 09:00:28;;;;;;;7.03;5.63;;;;;;;1.00;66.70;101883.78;10198354;29;20075;-75
2023/01/28 09:05:32;;;;;;;5.50;5.00;;;;;;;0.99;65.63;101889.97;10205777;29;20094;-75
2023/01/28 09:10:37;;;;;;;8.38;5.53;;;;;;;1.16;71.72;101892.31;10212821;29;20047;-76
2023/01/28 09:15:40;;;;;;;6.63;5.40;;;;;;;1.22;70.88;101899.28;10191104;29;20388;-76
2023/01/28 09:20:43;;;;;;;8.70;5.05;;;;;;;1.17;67.62;101901.13;10197885;29;20375;-76
2023/01/28 09:25:48;;;;;;;6.35;5.40;;;;;;;1.20;69.08;101909.03;10193334;29;20041;-76
2023/01/28 09:30:50;;;;;;;6.47;5.68;;;;;;;1.08;68.64;101909.25;10179086;29;20078;-76
2023/01/28 09:35:53;;;;;;;9.35;6.18;;;;;;;0.85;66.17;101915.81;10189135;29;20044;-75
2023/01/28 09:40:58;;;;;;;7.90;6.47;;;;;;;0.76;66.79;101916.81;10195559;29;20582;-77
2023/01/28 09:46:04;;;;;;;10.63;6.70;;;;;;;0.89;70.00;101921.91;10202667;29;20136;-76
2023/01/28 09:51:10;;;;;;;10.18;6.53;;;;;;;1.03;68.84;101928.72;10202786;29;20435;-76
2023/01/28 09:56:26;;;;;;;9.13;6.57;;;;;;;1.01;66.86;101934.94;10185629;29;20036;-76
2023/01/28 10:01:39;;;;;;;7.70;6.25;;;;;;;0.71;65.33;101929.22;10196446;29;20462;-76
2023/01/28 10:06:53;;;;;;;9.75;6.60;;;;;;;1.03;67.57;101918.13;10189754;29;20047;-76
2023/01/28 10:12:21;;;;;;;10.15;6.97;;;;;;;1.21;65.38;101908.13;10177758;29;20048;-75
2023/01/28 10:17:28;;;;;;;9.18;6.95;;;;;;;0.70;61.98;101905.44;10187550;29;20043;-76
2023/01/28 10:22:39;;;;;;;8.32;6.40;;;;;;;1.18;65.70;101902.88;10193840;29;20056;-76
2023/01/28 10:27:43;;;;;;;8.63;7.10;;;;;;;1.23;65.28;101907.19;10184641;29;20079;-76
2023/01/28 10:32:51;;;;;;;9.32;6.10;;;;;;;1.62;67.51;101914.41;10174388;29;20127;-76
2023/01/28 10:38:05;;;;;;;6.53;5.88;;;;;;;1.80;70.20;101905.25;10204500;29;20111;-76
2023/01/28 10:43:09;;;;;;;7.90;6.40;;;;;;;1.66;64.87;101914.34;10194612;29;20116;-77
2023/01/28 10:48:20;;;;;;;10.60;7.45;;;;;;;0.98;60.56;101932.34;10159037;29;20148;-75
2023/01/28 10:53:34;;;;;;;9.13;7.22;;;;;;;1.24;65.11;101932.78;10135848;29;20393;-76
2023/01/28 10:58:57;;;;;;;10.73;7.05;;;;;;;1.37;65.44;101927.25;10147653;28;20051;-76
2023/01/28 11:04:00;;;;;;;8.75;7.30;;;;;;;1.30;62.82;101920.34;10155797;28;20579;-77
2023/01/28 11:09:03;;;;;;;8.23;7.22;;;;;;;1.35;66.18;101929.06;10164583;28;20056;-77
2023/01/28 11:14:20;;;;;;;8.73;6.72;;;;;;;1.23;63.13;101925.72;10173359;28;20114;-77
2023/01/28 11:19:31;;;;;;;9.77;6.50;;;;;;;0.74;60.98;101920.38;10165188;28;20274;-77
2023/01/28 11:24:34;;;;;;;9.18;7.00;;;;;;;0.88;59.90;101918.41;10151004;28;20459;-77
2023/01/28 11:29:40;;;;;;;7.07;6.20;;;;;;;1.23;61.21;101917.75;10164330;28;20047;-76
2023/01/28 11:34:50;;;;;;;8.88;5.93;;;;;;;1.21;61.65;101894.91;10134957;29;20052;-77
2023/01/28 11:40:04;;;;;;;8.15;6.13;;;;;;;1.21;59.19;101905.50;10159500;28;20130;-77
2023/01/28 11:45:16;;;;;;;6.38;5.53;;;;;;;4.45;62.55;101881.59;10153014;28;20174;-76
2023/01/28 11:50:27;;;;;;;5.43;4.93;;;;;;;6.60;56.87;101864.06;10152426;28;20054;-76
2023/01/28 11:55:41;;;;;;;5.20;4.75;;;;;;;6.97;44.55;101865.25;10132080;29;20427;-75
2023/01/28 12:00:52;;;;;;;7.22;4.80;;;;;;;8.14;46.98;101850.16;10143585;28;20521;-74
2023/01/28 12:17:19;;;;;;;5.45;4.97;;;;;;;8.63;49.18;101828.19;10197531;29;20487;-76
2023/01/28 12:22:43;;;;;;;6.25;5.45;;;;;;;7.72;41.74;101819.13;10212606;23;20040;-74
2023/01/28 12:27:54;;;;;;;6.00;5.43;;;;;;;6.88;43.08;101772.97;10195825;29;20115;-74
2023/01/28 12:33:31;;;;;;;7.47;5.82;;;;;;;6.88;44.09;101754.28;10191554;29;20051;-74
2023/01/28 12:38:44;;;;;;;6.30;5.70;;;;;;;7.08;45.67;101753.41;10187799;29;20146;-74
2023/01/28 12:43:53;;;;;;;5.72;5.15;;;;;;;6.20;45.27;101726.00;10180176;28;20423;-75
2023/01/28 12:49:03;;;;;;;5.28;4.88;;;;;;;5.67;48.59;101729.91;10155942;28;20170;-74
2023/01/28 12:54:16;;;;;;;7.05;5.90;;;;;;;3.26;45.24;101746.03;10159195;28;20055;-74
2023/01/28 12:59:24;;;;;;;6.40;5.80;;;;;;;4.44;50.16;101762.75;10161387;28;20056;-74
2023/01/28 13:04:36;;;;;;;7.53;6.28;;;;;;;5.44;44.07;101741.47;10166065;28;20082;-74
2023/01/28 13:09:49;;;;;;;6.93;6.30;;;;;;;7.53;46.63;101733.53;10166037;28;20058;-74
2023/01/28 13:14:52;;;;;;;6.65;5.40;;;;;;;7.82;42.92;101747.34;10176383;28;20048;-74
2023/01/28 13:19:58;;;;;;;6.07;5.53;;;;;;;5.77;43.21;101757.09;10164353;28;21145;-74
2023/01/28 13:25:19;;;;;;;6.97;6.28;;;;;;;4.26;47.24;101783.75;10159959;28;20191;-73
2023/01/28 13:30:25;;;;;;;6.35;5.72;;;;;;;6.06;47.18;101778.16;10167819;28;20062;-74
2023/01/28 13:35:37;;;;;;;7.32;6.63;;;;;;;6.47;45.82;101775.56;10154606;28;20060;-74
2023/01/28 13:40:41;;;;;;;7.10;6.00;;;;;;;7.14;43.92;101790.53;10151875;28;20059;-73
2023/01/28 13:45:55;;;;;;;8.05;6.10;;;;;;;6.27;41.93;101799.56;10162589;28;20059;-73
2023/01/28 13:51:01;;;;;;;6.82;6.13;;;;;;;4.67;45.41;101812.56;10161673;28;20048;-73
2023/01/28 13:56:08;;;;;;;8.18;6.35;;;;;;;6.12;45.53;101788.59;10159951;28;20700;-74
2023/01/28 14:01:35;;;;;;;9.52;7.03;;;;;;;5.84;44.67;101778.16;10163599;28;20050;-73
2023/01/28 14:06:59;;;;;;;8.25;6.57;;;;;;;6.44;43.32;101759.69;10180526;28;20134;-73
2023/01/28 14:12:38;;;;;;;7.70;6.25;;;;;;;5.90;42.56;101739.69;10174380;28;20058;-73
2023/01/28 14:17:45;;;;;;;7.80;7.00;;;;;;;4.92;44.59;101720.25;10152093;28;20052;-73
2023/01/28 14:22:50;;;;;;;8.88;6.68;;;;;;;4.43;45.39;101691.84;10165831;28;20051;-73
2023/01/28 14:27:54;;;;;;;9.13;6.97;;;;;;;4.58;45.17;101708.16;10159428;28;20104;-74
2023/01/28 14:32:58;;;;;;;8.07;6.88;;;;;;;3.18;47.67;101713.53;10161230;28;20576;-73
2023/01/28 14:38:09;;;;;;;7.05;6.35;;;;;;;3.59;47.27;101738.00;10152261;28;20493;-74
2023/01/28 14:43:18;;;;;;;9.43;7.95;;;;;;;3.66;47.46;101740.41;10152368;28;20427;-74
2023/01/28 14:48:25;;;;;;;10.65;8.55;;;;;;;4.90;47.22;101775.38;10156214;28;20091;-74
2023/01/28 14:54:05;;;;;;;9.23;7.90;;;;;;;5.01;44.92;101789.19;10156364;28;20056;-74
2023/01/28 14:59:18;;;;;;;9.18;7.10;;;;;;;3.73;46.74;101765.03;10155034;28;20158;-73
2023/01/28 15:04:23;;;;;;;8.65;7.28;;;;;;;2.42;50.08;101775.69;10159290;28;20179;-73
2023/01/28 15:09:28;;;;;;;10.32;7.13;;;;;;;3.41;49.43;101766.84;10168941;28;20040;-73
2023/01/28 15:14:32;;;;;;;10.88;7.45;;;;;;;4.18;47.60;101764.50;10169379;28;20051;-73
2023/01/28 15:19:37;;;;;;;10.60;7.70;;;;;;;3.54;47.53;101767.38;10163399;28;20115;-73
2023/01/28 15:24:43;;;;;;;10.45;7.43;;;;;;;3.53;48.85;101772.72;10167655;28;20047;-73
2023/01/28 15:29:52;;;;;;;11.57;8.85;;;;;;;3.69;48.78;101768.69;10169785;28;20059;-73
2023/01/28 15:34:55;;;;;;;14.07;10.25;;;;;;;3.71;49.33;101796.09;10168166;28;20111;-73
2023/01/28 15:40:06;;;;;;;10.30;9.20;;;;;;;3.36;50.57;101802.44;10165239;28;20149;-73
2023/01/28 15:45:16;;;;;;;10.45;8.63;;;;;;;2.32;53.28;101811.31;10161728;28;20059;-73
2023/01/28 15:50:21;;;;;;;12.40;8.88;;;;;;;2.05;54.26;101808.38;10168072;28;20047;-73
2023/01/28 15:55:35;;;;;;;12.25;8.38;;;;;;;1.89;55.22;101812.28;10167404;28;20081;-73
2023/01/28 16:00:38;;;;;;;12.35;8.70;;;;;;;1.69;56.80;101826.84;10160764;28;20052;-73
2023/01/28 16:05:42;;;;;;;14.05;9.50;;;;;;;1.44;57.18;101828.25;10162658;28;23559;-74
2023/01/28 16:10:54;;;;;;;18.05;8.93;;;;;;;1.01;57.72;101827.28;10167322;28;20052;-73
2023/01/28 16:15:58;;;;;;;12.38;8.68;;;;;;;0.82;59.66;101836.44;10155854;28;20074;-73
2023/01/28 16:21:01;;;;;;;12.80;8.23;;;;;;;0.80;60.37;101857.66;10146316;28;20074;-74
2023/01/28 16:26:19;;;;;;;14.05;8.45;;;;;;;0.56;60.84;101866.88;10146860;28;20062;-73
2023/01/28 16:31:23;;;;;;;15.00;8.40;;;;;;;-0.01;61.78;101845.69;10155243;28;20063;-74
2023/01/28 16:36:26;;;;;;;14.95;8.10;;;;;;;0.20;60.69;101827.78;10161814;28;20438;-74
2023/01/28 16:41:34;;;;;;;13.20;8.30;;;;;;;0.30;60.11;101814.41;10148453;28;20052;-74
2023/01/28 16:46:37;;;;;;;12.75;8.27;;;;;;;0.39;59.32;101792.22;10143863;28;20048;-73
2023/01/28 16:51:42;;;;;;;11.68;8.35;;;;;;;0.21;59.53;101793.38;10155349;28;20092;-74
2023/01/28 16:56:47;;;;;;;14.15;8.13;;;;;;;0.19;59.99;101799.59;10162890;28;20254;-74
2023/01/28 17:01:50;;;;;;;12.48;7.30;;;;;;;0.27;59.84;101797.69;10153926;28;20047;-73
2023/01/28 17:06:53;;;;;;;14.85;8.30;;;;;;;0.03;59.94;101804.22;10147543;29;20059;-73
2023/01/28 17:11:57;;;;;;;14.40;8.50;;;;;;;-0.03;60.28;101804.31;10151764;28;20197;-73
2023/01/28 17:16:59;;;;;;;13.93;8.20;;;;;;;-0.11;60.83;101807.06;10164217;28;20044;-74
2023/01/28 17:22:02;;;;;;;16.92;9.65;;;;;;;0.01;60.77;101830.69;10150246;28;20060;-74
2023/01/28 17:27:07;;;;;;;16.48;9.25;;;;;;;-0.02;60.58;101832.50;10149753;28;20554;-74
2023/01/28 17:32:09;;;;;;;14.27;9.35;;;;;;;-0.24;61.20;101834.56;10159458;28;20073;-74
2023/01/28 17:37:12;;;;;;;17.65;11.45;;;;;;;-0.30;61.32;101839.03;10160147;28;20059;-73
2023/01/28 17:42:16;;;;;;;19.55;11.48;;;;;;;-0.35;61.50;101830.28;10162256;28;20063;-74
2023/01/28 17:47:20;;;;;;;20.35;11.55;;;;;;;-0.44;61.77;101818.94;10145602;28;20519;-73
2023/01/28 17:52:22;;;;;;;24.92;12.52;;;;;;;-0.31;61.98;101825.81;10162669;28;20115;-73
2023/01/28 17:57:27;;;;;;;23.77;12.15;;;;;;;-0.29;61.78;101834.63;10160480;28;20168;-74
2023/01/28 18:02:30;;;;;;;24.50;14.05;;;;;;;-0.37;61.51;101842.63;10154028;28;20051;-73
2023/01/28 18:07:33;;;;;;;26.08;15.05;;;;;;;-0.42;61.88;101844.44;10153470;28;20060;-73
2023/01/28 18:12:37;;;;;;;27.15;13.38;;;;;;;-0.48;62.32;101851.56;10163299;28;20048;-73
2023/01/28 18:17:40;;;;;;;25.60;14.02;;;;;;;-0.51;62.40;101863.03;10170604;28;20060;-74
2023/01/28 18:22:43;;;;;;;28.35;14.82;;;;;;;-0.51;62.46;101856.00;10158197;28;20044;-73
2023/01/28 18:27:48;;;;;;;26.85;15.98;;;;;;;-0.52;62.67;101867.47;10145565;29;20058;-73
2023/01/28 18:32:51;;;;;;;28.00;15.15;;;;;;;-0.53;62.76;101881.53;10152407;28;20052;-73
2023/01/28 18:37:54;;;;;;;30.25;16.83;;;;;;;-0.65;63.15;101879.03;10155944;28;20042;-73
2023/01/28 18:42:58;;;;;;;27.50;16.15;;;;;;;-0.70;63.31;101883.47;10169787;28;20436;-74
2023/01/28 18:48:02;;;;;;;29.80;15.68;;;;;;;-0.66;63.39;101873.75;10151011;28;20086;-74
2023/01/28 18:53:05;;;;;;;29.60;15.63;;;;;;;-0.63;63.33;101873.72;10161503;28;20084;-73
2023/01/28 18:58:09;;;;;;;26.40;15.88;;;;;;;-0.75;63.50;101872.97;10156926;28;20044;-74
2023/01/28 19:03:12;;;;;;;28.80;16.52;;;;;;;-0.72;63.51;101882.63;10149957;28;20048;-74
2023/01/28 19:08:14;;;;;;;30.67;17.85;;;;;;;-0.63;63.17;101882.53;10154462;28;20165;-74
2023/01/28 19:13:19;;;;;;;28.60;15.43;;;;;;;-0.66;63.38;101900.16;10150999;28;20051;-74
2023/01/28 19:18:22;;;;;;;29.92;16.90;;;;;;;-0.78;63.63;101896.75;10160652;28;20054;-74
2023/01/28 19:23:24;;;;;;;28.05;16.05;;;;;;;-0.81;63.66;101899.44;10155180;28;20063;-74
2023/01/28 19:28:32;;;;;;;30.52;17.10;;;;;;;-0.79;63.60;101915.25;10141663;28;20052;-74
2023/01/28 19:33:35;;;;;;;34.33;18.13;;;;;;;-0.87;63.54;101906.53;10151969;28;20134;-74
2023/01/28 19:38:38;;;;;;;34.00;18.42;;;;;;;-0.87;64.15;101899.50;10153181;28;21292;-74
2023/01/28 19:43:42;;;;;;;31.90;18.25;;;;;;;-0.95;63.96;101902.19;10160473;28;20098;-74
2023/01/28 19:48:46;;;;;;;37.28;19.75;;;;;;;-0.96;63.93;101894.28;10146441;28;20055;-74
2023/01/28 19:53:51;;;;;;;29.83;17.27;;;;;;;-1.04;64.40;101882.91;10149856;28;20068;-74
2023/01/28 19:58:55;;;;;;;33.90;17.20;;;;;;;-1.08;64.40;101883.84;10151418;28;20050;-74
2023/01/28 20:03:59;;;;;;;34.17;17.38;;;;;;;-1.08;64.73;101881.22;10151234;29;20044;-74
2023/01/28 20:09:05;;;;;;;38.65;19.02;;;;;;;-1.07;64.62;101872.41;10150380;28;20643;-73
2023/01/28 20:14:09;;;;;;;37.13;19.90;;;;;;;-1.01;64.73;101869.72;10144943;28;20050;-74
2023/01/28 20:19:14;;;;;;;35.63;19.85;;;;;;;-1.13;64.63;101865.41;10155784;28;20060;-73
2023/01/28 20:24:17;;;;;;;42.60;20.33;;;;;;;-1.19;65.16;101853.16;10156456;28;20047;-74
2023/01/28 20:29:21;;;;;;;41.88;19.65;;;;;;;-1.25;64.98;101866.41;10156810;28;20062;-74
2023/01/28 20:34:24;;;;;;;45.47;22.08;;;;;;;-1.26;65.34;101856.75;10149402;28;20190;-73
2023/01/28 20:39:27;;;;;;;39.67;18.73;;;;;;;-1.34;65.36;101855.94;10154872;28;20051;-74
2023/01/28 20:44:31;;;;;;;38.80;20.20;;;;;;;-1.27;64.90;101840.94;10160028;28;20672;-74
2023/01/28 20:49:34;;;;;;;40.97;21.00;;;;;;;-1.24;65.05;101846.19;10156644;28;20192;-74
2023/01/28 20:54:37;;;;;;;37.90;20.52;;;;;;;-1.25;64.51;101852.34;10151305;28;20052;-73
2023/01/28 20:59:41;;;;;;;42.70;20.08;;;;;;;-1.37;65.13;101852.44;10162528;28;20052;-74
2023/01/28 21:04:43;;;;;;;37.72;20.95;;;;;;;-1.33;65.37;101847.13;10166293;28;20054;-74
2023/01/28 21:09:46;;;;;;;37.10;17.20;;;;;;;-1.32;65.21;101859.41;10170496;28;20044;-74
2023/01/28 21:14:50;;;;;;;43.13;20.45;;;;;;;-1.31;65.27;101849.78;10168173;28;20688;-74
2023/01/28 21:19:53;;;;;;;33.15;18.95;;;;;;;-1.45;65.67;101856.03;10175883;28;20051;-74
2023/01/28 21:24:56;;;;;;;34.55;17.02;;;;;;;-1.23;64.95;101845.31;10176223;28;20503;-74
2023/01/28 21:30:00;;;;;;;35.15;18.35;;;;;;;-1.19;65.13;101847.88;10171673;28;20156;-74
2023/01/28 21:35:03;;;;;;;35.83;17.25;;;;;;;-1.11;64.69;101850.47;10172558;28;20076;-74
2023/01/28 21:40:07;;;;;;;35.83;18.67;;;;;;;-1.02;64.43;101849.50;10173154;28;20058;-74
2023/01/28 21:45:11;;;;;;;34.70;18.60;;;;;;;-0.95;64.17;101848.56;10173909;28;20066;-73
2023/01/28 21:50:15;;;;;;;37.75;20.30;;;;;;;-0.95;64.33;101838.00;10169510;28;20102;-74
2023/01/28 21:55:19;;;;;;;38.03;19.52;;;;;;;-0.86;64.20;101837.91;10167658;28;20048;-74
2023/01/28 22:00:23;;;;;;;37.97;19.00;;;;;;;-0.80;63.99;101835.19;10172928;28;20054;-74
2023/01/28 22:05:26;;;;;;;38.92;18.77;;;;;;;-0.83;63.66;101832.59;10170628;28;20048;-74
2023/01/28 22:10:29;;;;;;;37.35;18.38;;;;;;;-0.86;64.38;101832.63;10168356;28;20546;-74
2023/01/28 22:15:34;;;;;;;38.20;19.85;;;;;;;-0.91;64.46;101821.25;10168287;28;20055;-74
2023/01/28 22:20:37;;;;;;;38.50;18.73;;;;;;;-1.36;65.32;101826.06;10169327;28;20095;-74
2023/01/28 22:25:39;;;;;;;32.30;15.45;;;;;;;-1.44;66.18;101812.09;10167314;28;20056;-74
2023/01/28 22:30:44;;;;;;;41.13;19.15;;;;;;;-1.23;66.50;101814.53;10153842;28;20063;-74
2023/01/28 22:41:21;;;;;;;39.05;19.13;;;;;;;-0.95;65.82;101832.72;10505764;23;20272;-75
2023/01/28 22:46:25;;;;;;;41.65;17.65;;;;;;;-1.15;65.78;101822.38;10212964;29;20119;-75
2023/01/28 22:51:30;;;;;;;39.75;19.95;;;;;;;-0.82;65.33;101825.56;10194975;29;20043;-76
2023/01/28 22:56:32;;;;;;;43.95;19.63;;;;;;;-0.81;65.27;101812.34;10181304;29;20052;-77
2023/01/28 23:01:36;;;;;;;44.67;20.80;;;;;;;-0.80;65.35;101822.00;10198842;29;20054;-75
2023/01/28 23:06:39;;;;;;;38.97;19.05;;;;;;;-0.54;64.31;101821.72;10195818;29;20059;-75
2023/01/28 23:11:42;;;;;;;40.83;18.35;;;;;;;-0.65;64.78;101826.25;10189218;29;20048;-77
2023/01/28 23:27:33;;;;;;;41.55;18.90;;;;;;;-0.76;64.96;101836.91;10196887;29;20360;-75
2023/01/28 23:32:39;;;;;;;41.47;18.13;;;;;;;-0.82;65.04;101831.72;10186173;29;20457;-75
2023/01/28 23:37:42;;;;;;;35.08;17.83;;;;;;;-1.33;66.10;101820.78;10182129;29;20130;-75
2023/01/28 23:42:48;;;;;;;38.10;18.42;;;;;;;-1.12;65.58;101810.94;10191347;29;20106;-76
2023/01/28 23:47:52;;;;;;;34.97;17.38;;;;;;;-0.93;65.01;101817.78;10192418;29;20067;-74
2023/01/28 23:52:55;;;;;;;33.15;16.27;;;;;;;-1.32;65.78;101811.97;10195620;29;20032;-76
2023/01/28 23:57:57;;;;;;;38.20;17.08;;;;;;;-1.20;66.28;101813.63;10178153;29;20051;-77
